createdAt,value
2019-04-28T00:00:47.075Z,9.38
2019-04-28T00:03:16.277Z,8.93
2019-04-28T00:05:45.409Z,10.85
2019-04-28T00:08:14.538Z,10.10
2019-04-28T00:10:43.772Z,8.68
2019-04-28T00:13:13.420Z,11.57
2019-04-28T00:15:42.616Z,9.78
2019-04-28T00:18:12.001Z,8.93
2019-04-28T00:21:01.639Z,11.57
2019-04-28T00:23:55.703Z,12.00
2019-04-28T00:26:35.702Z,11.48
2019-04-28T00:29:04.960Z,9.55
2019-04-28T00:31:34.100Z,11.20
2019-04-28T00:34:03.238Z,10.18
2019-04-28T00:36:32.386Z,9.10
2019-04-28T00:39:01.711Z,9.55
2019-04-28T00:41:31.025Z,8.80
2019-04-28T00:44:01.768Z,9.15
2019-04-28T00:46:34.101Z,8.80
2019-04-28T00:49:03.436Z,10.23
2019-04-28T00:51:32.539Z,8.20
2019-04-28T00:54:01.758Z,9.38
2019-04-28T00:56:31.687Z,9.75
2019-04-28T00:59:01.657Z,10.85
2019-04-28T01:01:55.099Z,11.12
2019-04-28T01:04:24.221Z,9.90
2019-04-28T01:06:53.357Z,11.05
2019-04-28T01:09:22.474Z,10.18
2019-04-28T01:11:53.382Z,9.73
2019-04-28T01:14:22.859Z,11.08
2019-04-28T01:16:59.830Z,12.15
2019-04-28T01:19:32.364Z,9.38
2019-04-28T01:22:16.133Z,8.95
2019-04-28T01:24:45.255Z,12.10
2019-04-28T01:27:50.451Z,11.45
2019-04-28T01:30:40.136Z,10.65
2019-04-28T01:33:29.505Z,11.22
2019-04-28T01:36:00.453Z,12.28
2019-04-28T01:38:30.290Z,12.55
2019-04-28T01:41:01.444Z,11.90
2019-04-28T01:43:31.261Z,11.65
2019-04-28T01:46:00.512Z,11.57
2019-04-28T01:48:31.448Z,10.88
2019-04-28T01:51:00.676Z,9.65
2019-04-28T01:53:30.806Z,11.45
2019-04-28T01:56:00.212Z,11.55
2019-04-28T01:58:29.774Z,11.00
2019-04-28T02:00:59.676Z,12.82
2019-04-28T02:03:30.697Z,10.63
2019-04-28T02:06:00.284Z,12.93
2019-04-28T02:08:30.193Z,11.75
2019-04-28T02:11:00.111Z,12.35
2019-04-28T02:13:30.080Z,12.90
2019-04-28T02:16:00.048Z,14.00
2019-04-28T02:18:29.956Z,13.53
2019-04-28T02:21:09.978Z,12.98
2019-04-28T02:23:39.687Z,14.25
2019-04-28T02:26:09.714Z,12.28
2019-04-28T02:28:40.644Z,13.68
2019-04-28T02:31:11.481Z,14.05
2019-04-28T02:33:41.003Z,11.50
2019-04-28T02:36:12.369Z,13.70
2019-04-28T02:38:41.567Z,12.85
2019-04-28T02:41:11.174Z,10.25
2019-04-28T02:43:41.024Z,13.08
2019-04-28T02:46:10.591Z,11.78
2019-04-28T02:48:40.473Z,11.68
2019-04-28T02:54:11.126Z,12.20
2019-04-28T02:56:43.429Z,9.08
2019-04-28T02:59:11.139Z,12.88
2019-04-28T03:01:40.936Z,11.63
2019-04-28T03:04:12.377Z,12.15
2019-04-28T03:06:41.208Z,11.22
2019-04-28T03:09:10.654Z,10.93
2019-04-28T03:11:41.078Z,12.73
2019-04-28T03:14:11.200Z,11.60
2019-04-28T03:16:41.144Z,14.20
2019-04-28T03:19:10.956Z,13.62
2019-04-28T03:21:41.563Z,12.23
2019-04-28T03:24:13.351Z,15.10
2019-04-28T03:26:50.885Z,14.05
2019-04-28T03:29:40.440Z,14.70
2019-04-28T03:32:30.588Z,14.00
2019-04-28T03:34:47.162Z,10.90
2019-04-28T03:37:16.469Z,12.45
2019-04-28T03:39:45.647Z,12.43
2019-04-28T03:42:14.788Z,9.45
2019-04-28T03:44:43.955Z,15.50
2019-04-28T03:47:13.085Z,10.08
2019-04-28T03:49:43.268Z,12.90
2019-04-28T03:52:12.630Z,12.82
2019-04-28T03:54:41.740Z,12.68
2019-04-28T03:57:11.584Z,13.48
2019-04-28T03:59:43.479Z,12.93
2019-04-28T04:02:11.813Z,11.08
2019-04-28T04:04:41.597Z,14.03
2019-04-28T04:07:11.230Z,11.18
2019-04-28T04:09:51.507Z,9.63
2019-04-28T04:12:45.564Z,10.98
2019-04-28T04:15:49.200Z,10.30
2019-04-28T04:18:24.083Z,8.98
2019-04-28T04:20:53.215Z,9.38
2019-04-28T04:23:23.359Z,11.25
2019-04-28T04:25:52.662Z,10.00
2019-04-28T04:28:21.808Z,10.15
2019-04-28T04:30:51.136Z,8.68
2019-04-28T04:33:21.004Z,9.55
2019-04-28T04:35:51.673Z,8.70
2019-04-28T04:38:21.850Z,10.20
2019-04-28T04:40:51.500Z,10.55
2019-04-28T04:43:23.270Z,9.53
2019-04-28T04:45:54.810Z,9.20
2019-04-28T04:48:23.979Z,8.95
2019-04-28T04:50:53.081Z,7.85
2019-04-28T04:53:22.595Z,7.45
2019-04-28T04:55:52.755Z,6.70
2019-04-28T04:58:21.956Z,6.70
2019-04-28T05:01:02.768Z,7.83
2019-04-28T05:03:34.034Z,5.97
2019-04-28T05:06:04.920Z,7.85
2019-04-28T05:08:34.086Z,6.05
2019-04-28T05:11:03.299Z,5.80
2019-04-28T05:13:32.642Z,5.58
2019-04-28T05:16:01.782Z,5.42
2019-04-28T05:18:30.895Z,5.78
2019-04-28T05:21:00.082Z,6.05
2019-04-28T05:26:21.362Z,8.43
2019-04-28T05:28:53.266Z,6.45
2019-04-28T05:31:24.335Z,5.60
2019-04-28T05:33:52.430Z,6.95
2019-04-28T05:36:21.650Z,6.58
2019-04-28T05:38:50.757Z,6.62
2019-04-28T05:41:19.901Z,6.15
2019-04-28T05:43:50.463Z,5.90
2019-04-28T05:46:19.740Z,6.40
2019-04-28T05:51:50.458Z,6.28
2019-04-28T05:54:26.284Z,6.20
2019-04-28T05:57:13.233Z,7.87
2019-04-28T06:00:03.683Z,6.92
2019-04-28T06:02:35.835Z,7.22
2019-04-28T06:05:05.119Z,6.50
2019-04-28T06:07:44.069Z,5.75
2019-04-28T06:10:13.290Z,5.85
2019-04-28T06:12:42.411Z,6.40
2019-04-28T06:15:11.999Z,7.45
2019-04-28T06:17:41.298Z,7.33
2019-04-28T06:20:11.832Z,7.25
2019-04-28T06:22:41.179Z,6.42
2019-04-28T06:25:10.327Z,7.17
2019-04-28T06:27:39.448Z,5.60
2019-04-28T06:30:08.773Z,5.35
2019-04-28T06:32:37.961Z,5.30
2019-04-28T06:35:07.213Z,5.28
2019-04-28T06:37:36.342Z,4.67
2019-04-28T06:40:05.576Z,4.37
2019-04-28T06:42:34.696Z,4.90
2019-04-28T06:45:04.331Z,5.55
2019-04-28T06:47:33.467Z,4.53
2019-04-28T06:50:02.612Z,4.80
2019-04-28T06:52:31.744Z,5.60
2019-04-28T06:55:00.902Z,5.53
2019-04-28T06:57:30.044Z,5.78
2019-04-28T06:59:59.166Z,5.40
2019-04-28T07:02:28.310Z,5.03
2019-04-28T07:05:01.989Z,5.60
2019-04-28T07:07:28.557Z,5.75
2019-04-28T07:09:57.733Z,5.87
2019-04-28T07:12:26.873Z,4.78
2019-04-28T07:14:56.008Z,5.60
2019-04-28T07:17:25.166Z,5.65
2019-04-28T07:20:04.656Z,5.33
2019-04-28T07:22:33.808Z,5.55
2019-04-28T07:25:03.082Z,4.87
2019-04-28T07:27:32.210Z,7.28
2019-04-28T07:30:01.356Z,7.60
2019-04-28T07:32:30.486Z,7.30
2019-04-28T07:34:59.718Z,7.58
2019-04-28T07:37:28.814Z,8.93
2019-04-28T07:39:57.929Z,8.43
2019-04-28T07:42:27.085Z,8.35
2019-04-28T07:44:56.215Z,8.30
2019-04-28T07:47:25.372Z,7.85
2019-04-28T07:49:54.550Z,8.10
2019-04-28T07:52:38.791Z,7.85
2019-04-28T07:55:07.925Z,7.43
2019-04-28T07:57:37.074Z,7.70
2019-04-28T08:00:06.685Z,7.67
2019-04-28T08:02:35.851Z,7.03
2019-04-28T08:05:05.233Z,8.50
2019-04-28T08:07:34.373Z,8.05
2019-04-28T08:10:03.506Z,8.40
2019-04-28T08:12:32.769Z,7.53
2019-04-28T08:15:01.909Z,7.30
2019-04-28T08:17:31.061Z,7.30
2019-04-28T08:20:00.280Z,7.90
2019-04-28T08:22:29.435Z,8.95
2019-04-28T08:24:58.573Z,8.43
2019-04-28T08:27:27.698Z,8.80
2019-04-28T08:29:58.820Z,8.10
2019-04-28T08:32:36.451Z,7.67
2019-04-28T08:35:05.799Z,9.13
2019-04-28T08:37:35.137Z,8.15
2019-04-28T08:40:04.778Z,8.08
2019-04-28T08:42:33.910Z,9.18
2019-04-28T08:45:03.067Z,8.60
2019-04-28T08:47:32.203Z,8.88
2019-04-28T08:50:01.365Z,11.10
2019-04-28T08:52:30.497Z,10.40
2019-04-28T08:54:59.633Z,9.60
2019-04-28T08:57:28.755Z,9.70
2019-04-28T08:59:57.915Z,8.70
2019-04-28T09:02:27.040Z,9.53
2019-04-28T09:04:56.218Z,11.73
2019-04-28T09:07:25.340Z,12.60
2019-04-28T09:09:54.537Z,10.40
2019-04-28T09:12:23.715Z,8.35
2019-04-28T09:14:52.835Z,9.68
2019-04-28T09:17:21.987Z,9.85
2019-04-28T09:19:51.135Z,10.98
2019-04-28T09:22:20.303Z,10.05
2019-04-28T09:24:49.447Z,10.48
2019-04-28T09:27:18.677Z,8.35
2019-04-28T09:29:47.829Z,12.68
2019-04-28T09:32:17.004Z,9.60
2019-04-28T09:34:46.254Z,12.40
2019-04-28T09:37:15.417Z,10.82
2019-04-28T09:39:48.882Z,10.15
2019-04-28T09:42:35.706Z,13.08
2019-04-28T09:45:06.881Z,10.53
2019-04-28T09:47:36.040Z,9.70
2019-04-28T09:50:05.429Z,11.85
2019-04-28T09:52:34.616Z,10.58
2019-04-28T09:55:03.770Z,11.15
2019-04-28T09:57:32.882Z,15.70
2019-04-28T10:00:02.175Z,19.90
2019-04-28T10:02:31.322Z,23.10
2019-04-28T10:05:00.539Z,13.90
2019-04-28T10:07:29.668Z,12.07
2019-04-28T10:09:58.888Z,10.68
2019-04-28T10:12:28.052Z,9.20
2019-04-28T10:14:57.167Z,5.25
2019-04-28T10:17:26.331Z,7.62
2019-04-28T10:19:55.508Z,7.20
2019-04-28T10:22:24.673Z,8.00
2019-04-28T10:24:53.834Z,7.70
2019-04-28T10:27:22.964Z,7.85
2019-04-28T10:29:52.116Z,8.10
2019-04-28T10:32:21.288Z,7.62
2019-04-28T10:34:55.198Z,7.53
2019-04-28T10:37:22.524Z,6.15
2019-04-28T10:40:09.148Z,6.55
2019-04-28T10:42:38.314Z,6.67
2019-04-28T10:45:09.381Z,6.95
2019-04-28T10:47:38.613Z,4.78
2019-04-28T10:50:08.340Z,6.08
2019-04-28T10:52:37.512Z,6.60
2019-04-28T10:55:06.730Z,7.10
2019-04-28T10:57:35.870Z,8.33
2019-04-28T11:00:06.756Z,6.30
2019-04-28T11:02:35.894Z,5.60
2019-04-28T11:05:13.020Z,5.92
2019-04-28T11:07:42.157Z,6.72
2019-04-28T11:10:14.734Z,4.58
2019-04-28T11:12:43.870Z,3.72
2019-04-28T11:15:32.122Z,4.30
2019-04-28T11:18:01.358Z,4.70
2019-04-28T11:20:30.504Z,4.25
2019-04-28T11:22:59.703Z,3.70
2019-04-28T11:25:28.842Z,6.58
2019-04-28T11:27:58.073Z,7.53
2019-04-28T11:30:28.861Z,5.00
2019-04-28T11:33:14.467Z,3.60
2019-04-28T11:35:43.735Z,3.00
2019-04-28T11:38:12.916Z,2.20
2019-04-28T11:40:42.040Z,2.52
2019-04-28T11:43:11.227Z,6.05
2019-04-28T11:45:40.360Z,3.37
2019-04-28T11:48:09.557Z,6.72
2019-04-28T11:50:38.697Z,4.60
2019-04-28T11:53:07.874Z,3.70
2019-04-28T11:55:36.991Z,4.00
2019-04-28T11:58:06.139Z,7.22
2019-04-28T12:00:36.148Z,7.37
2019-04-28T12:03:06.105Z,7.28
2019-04-28T12:05:41.628Z,7.85
2019-04-28T12:08:10.830Z,5.95
2019-04-28T12:10:55.959Z,5.75
2019-04-28T12:16:46.805Z,5.30
2019-04-28T12:19:23.627Z,5.03
2019-04-28T12:21:52.747Z,5.08
2019-04-28T12:24:21.892Z,4.60
2019-04-28T12:26:51.195Z,5.53
2019-04-28T12:29:20.354Z,4.53
2019-04-28T12:31:49.477Z,4.20
2019-04-28T12:34:18.637Z,5.30
2019-04-28T12:36:47.783Z,4.67
2019-04-28T12:39:16.931Z,3.37
2019-04-28T12:41:46.145Z,3.12
2019-04-28T12:44:15.307Z,3.60
2019-04-28T12:46:44.637Z,4.00
2019-04-28T12:49:35.860Z,3.55
2019-04-28T12:52:06.655Z,3.65
2019-04-28T12:54:37.449Z,4.35
2019-04-28T12:57:06.581Z,5.17
2019-04-28T12:59:42.034Z,5.53
2019-04-28T13:02:25.484Z,5.33
2019-04-28T13:04:57.675Z,5.40
2019-04-28T13:07:26.821Z,4.78
2019-04-28T13:09:55.986Z,5.37
2019-04-28T13:12:25.137Z,4.85
2019-04-28T13:14:54.320Z,5.20
2019-04-28T13:17:23.444Z,5.10
2019-04-28T13:19:52.581Z,4.08
2019-04-28T13:22:21.751Z,11.88
2019-04-28T13:24:50.965Z,6.08
2019-04-28T13:27:20.147Z,5.62
2019-04-28T13:29:49.322Z,4.62
2019-04-28T13:32:18.466Z,4.25
2019-04-28T13:34:47.619Z,5.80
2019-04-28T13:37:16.759Z,6.30
2019-04-28T13:39:54.387Z,7.65
2019-04-28T13:42:23.643Z,6.53
2019-04-28T13:45:03.090Z,7.28
2019-04-28T13:47:32.319Z,6.35
2019-04-28T13:50:20.567Z,7.03
2019-04-28T13:52:49.717Z,5.53
2019-04-28T13:55:46.993Z,6.45
2019-04-28T13:58:17.643Z,6.47
2019-04-28T14:01:04.217Z,6.12
2019-04-28T14:03:58.251Z,6.08
2019-04-28T14:06:28.850Z,5.75
2019-04-28T14:08:58.174Z,6.62
2019-04-28T14:11:27.311Z,5.60
2019-04-28T14:13:56.439Z,5.67
2019-04-28T14:16:25.630Z,5.85
2019-04-28T14:18:54.758Z,5.87
2019-04-28T14:21:23.911Z,5.55
2019-04-28T14:23:53.111Z,6.22
2019-04-28T14:26:22.246Z,6.30
2019-04-28T14:28:51.444Z,6.83
2019-04-28T14:31:20.605Z,6.35
2019-04-28T14:33:49.727Z,5.95
2019-04-28T14:36:18.860Z,6.35
2019-04-28T14:38:48.028Z,7.47
2019-04-28T14:41:17.390Z,7.70
2019-04-28T14:43:46.742Z,7.17
2019-04-28T14:46:15.831Z,7.90
2019-04-28T14:48:45.046Z,6.62
2019-04-28T14:51:14.327Z,7.08
2019-04-28T14:53:43.580Z,29.65
2019-04-28T14:56:12.646Z,5.80
2019-04-28T14:58:41.812Z,7.85
2019-04-28T15:01:37.444Z,8.03
2019-04-28T15:04:12.350Z,23.00
2019-04-28T15:06:55.372Z,13.13
2019-04-28T15:09:49.540Z,14.65
2019-04-28T15:12:18.701Z,13.72
2019-04-28T15:14:47.893Z,5.72
2019-04-28T15:17:17.162Z,6.17
2019-04-28T15:19:46.367Z,4.97
2019-04-28T15:22:15.551Z,5.53
2019-04-28T15:24:44.707Z,4.22
2019-04-28T15:27:13.890Z,5.37
2019-04-28T15:29:43.091Z,4.42
2019-04-28T15:32:12.368Z,4.20
2019-04-28T15:34:41.551Z,4.12
2019-04-28T15:37:10.696Z,4.12
2019-04-28T15:39:39.870Z,4.12
2019-04-28T15:42:09.272Z,4.00
2019-04-28T15:44:38.545Z,4.87
2019-04-28T15:47:07.707Z,4.65
2019-04-28T15:49:36.878Z,3.65
2019-04-28T15:52:06.089Z,3.62
2019-04-28T15:54:35.315Z,4.10
2019-04-28T15:57:04.480Z,3.98
2019-04-28T15:59:33.640Z,3.22
2019-04-28T16:02:03.179Z,5.22
2019-04-28T16:04:33.253Z,5.58
2019-04-28T16:07:02.451Z,4.03
2019-04-28T16:09:31.606Z,4.53
2019-04-28T16:12:00.861Z,5.17
2019-04-28T16:14:30.031Z,3.55
2019-04-28T16:16:59.141Z,3.98
2019-04-28T16:19:28.400Z,3.55
2019-04-28T16:21:57.567Z,5.85
2019-04-28T16:24:26.701Z,4.85
2019-04-28T16:26:55.879Z,4.33
2019-04-28T16:29:25.022Z,4.55
2019-04-28T16:31:54.145Z,4.37
2019-04-28T16:34:23.301Z,3.62
2019-04-28T16:36:52.451Z,3.42
2019-04-28T16:39:21.589Z,3.25
2019-04-28T16:42:06.121Z,4.12
2019-04-28T16:44:58.205Z,3.67
2019-04-28T16:47:27.604Z,4.12
2019-04-28T16:49:56.718Z,3.77
2019-04-28T16:52:25.879Z,3.50
2019-04-28T16:55:15.170Z,3.95
2019-04-28T16:58:01.907Z,5.03
2019-04-28T17:00:46.629Z,13.88
2019-04-28T17:03:15.819Z,18.87
2019-04-28T17:05:44.975Z,9.63
2019-04-28T17:08:14.141Z,5.95
2019-04-28T17:10:43.344Z,3.30
2019-04-28T17:13:12.492Z,3.80
2019-04-28T17:15:41.794Z,3.52
2019-04-28T17:18:10.969Z,3.60
2019-04-28T17:20:40.111Z,3.05
2019-04-28T17:23:09.243Z,3.42
2019-04-28T17:25:38.488Z,3.58
2019-04-28T17:28:07.631Z,3.77
2019-04-28T17:30:36.840Z,3.40
2019-04-28T17:33:05.995Z,4.12
2019-04-28T17:35:35.134Z,3.80
2019-04-28T17:38:06.854Z,3.75
2019-04-28T17:40:35.943Z,3.62
2019-04-28T17:43:05.115Z,3.90
2019-04-28T17:45:34.249Z,3.47
2019-04-28T17:48:11.743Z,3.90
2019-04-28T17:50:40.871Z,3.33
2019-04-28T17:53:10.046Z,4.47
2019-04-28T17:55:39.373Z,3.62
2019-04-28T17:58:08.541Z,4.12
2019-04-28T18:00:51.187Z,3.42
2019-04-28T18:03:27.572Z,4.30
2019-04-28T18:06:16.843Z,3.70
2019-04-28T18:08:35.570Z,3.95
2019-04-28T18:11:04.760Z,4.30
2019-04-28T18:13:33.916Z,3.95
2019-04-28T18:16:11.675Z,3.80
2019-04-28T18:18:46.585Z,3.80
2019-04-28T18:21:15.792Z,4.53
2019-04-28T18:23:44.988Z,4.03
2019-04-28T18:26:14.139Z,3.98
2019-04-28T18:28:43.382Z,3.55
2019-04-28T18:31:34.658Z,4.12
2019-04-28T18:34:15.460Z,4.28
2019-04-28T18:36:51.478Z,3.72
2019-04-28T18:39:39.622Z,4.00
2019-04-28T18:42:15.234Z,4.00
2019-04-28T18:44:44.380Z,4.03
2019-04-28T18:47:13.810Z,4.12
2019-04-28T18:49:42.933Z,3.62
2019-04-28T18:52:12.098Z,4.45
2019-04-28T18:54:41.280Z,4.12
2019-04-28T18:57:10.412Z,3.60
2019-04-28T18:59:39.552Z,3.62
2019-04-28T19:02:17.298Z,4.35
2019-04-28T19:04:46.534Z,3.60
2019-04-28T19:07:19.198Z,3.87
2019-04-28T19:10:13.164Z,3.70
2019-04-28T19:12:48.108Z,4.65
2019-04-28T19:15:42.302Z,4.05
2019-04-28T19:18:16.413Z,3.65
2019-04-28T19:20:46.063Z,4.15
2019-04-28T19:23:15.120Z,3.98
2019-04-28T19:25:44.248Z,3.80
2019-04-28T19:28:13.388Z,3.75
2019-04-28T19:30:45.452Z,4.00
2019-04-28T19:33:13.483Z,4.08
2019-04-28T19:35:42.630Z,4.45
2019-04-28T19:38:11.812Z,3.95
2019-04-28T19:40:40.996Z,4.05
2019-04-28T19:43:10.337Z,4.22
2019-04-28T19:45:41.255Z,4.40
2019-04-28T19:48:10.414Z,3.58
2019-04-28T19:50:39.556Z,3.98
2019-04-28T19:53:08.678Z,4.10
2019-04-28T19:55:41.905Z,4.10
2019-04-28T19:58:28.328Z,3.80
2019-04-28T20:01:04.184Z,4.25
2019-04-28T20:03:33.380Z,4.03
2019-04-28T20:06:02.565Z,3.67
2019-04-28T20:08:31.819Z,4.30
2019-04-28T20:11:00.920Z,3.70
2019-04-28T20:13:31.529Z,3.65
2019-04-28T20:16:01.036Z,3.55
2019-04-28T20:18:30.171Z,3.40
2019-04-28T20:20:59.294Z,3.72
2019-04-28T20:23:28.435Z,4.70
2019-04-28T20:25:57.625Z,4.22
2019-04-28T20:28:26.761Z,4.70
2019-04-28T20:30:55.985Z,3.62
2019-04-28T20:33:25.127Z,4.08
2019-04-28T20:35:58.768Z,4.72
2019-04-28T20:38:32.912Z,4.22
2019-04-28T20:41:10.483Z,4.22
2019-04-28T20:43:39.901Z,3.85
2019-04-28T20:46:09.235Z,4.28
2019-04-28T20:48:38.377Z,4.08
2019-04-28T20:51:07.720Z,4.50
2019-04-28T20:53:36.812Z,4.10
2019-04-28T20:56:06.083Z,3.52
2019-04-28T20:58:35.215Z,4.42
2019-04-28T21:01:04.355Z,3.50
2019-04-28T21:03:33.585Z,4.30
2019-04-28T21:06:02.702Z,4.25
2019-04-28T21:08:31.812Z,4.30
2019-04-28T21:11:01.114Z,4.20
2019-04-28T21:13:30.251Z,4.30
2019-04-28T21:15:59.385Z,4.97
2019-04-28T21:18:28.513Z,4.80
2019-04-28T21:20:57.643Z,4.03
2019-04-28T21:23:26.785Z,3.95
2019-04-28T21:25:56.191Z,4.03
2019-04-28T21:28:25.315Z,4.37
2019-04-28T21:30:54.463Z,3.90
2019-04-28T21:33:23.585Z,4.33
2019-04-28T21:35:52.745Z,4.10
2019-04-28T21:38:21.875Z,4.55
2019-04-28T21:40:51.029Z,4.95
2019-04-28T21:43:39.117Z,4.10
2019-04-28T21:46:30.455Z,3.87
2019-04-28T21:49:21.609Z,4.80
2019-04-28T21:51:50.750Z,3.77
2019-04-28T21:54:19.883Z,4.35
2019-04-28T21:56:49.040Z,4.62
2019-04-28T21:59:18.223Z,4.85
2019-04-28T22:01:47.489Z,4.53
2019-04-28T22:04:16.625Z,4.35
2019-04-28T22:06:45.835Z,4.47
2019-04-28T22:09:15.975Z,3.50
2019-04-28T22:11:45.160Z,4.65
2019-04-28T22:14:14.291Z,4.05
2019-04-28T22:16:43.449Z,3.80
2019-04-28T22:19:12.621Z,4.53
2019-04-28T22:21:41.735Z,3.70
2019-04-28T22:24:32.665Z,4.70
2019-04-28T22:27:01.775Z,5.28
2019-04-28T22:29:30.910Z,4.72
2019-04-28T22:32:00.104Z,4.65
2019-04-28T22:34:29.222Z,5.10
2019-04-28T22:36:58.353Z,4.80
2019-04-28T22:39:27.493Z,4.55
2019-04-28T22:41:56.619Z,5.42
2019-04-28T22:44:25.761Z,5.08
2019-04-28T22:46:54.872Z,4.70
2019-04-28T22:49:24.033Z,4.47
2019-04-28T22:51:53.154Z,4.62
2019-04-28T22:54:44.117Z,5.70
2019-04-28T22:57:35.304Z,5.00
2019-04-28T23:00:12.309Z,5.25
2019-04-28T23:02:41.426Z,5.20
2019-04-28T23:05:10.758Z,4.72
2019-04-28T23:07:39.888Z,4.55
2019-04-28T23:10:09.741Z,4.53
2019-04-28T23:12:38.884Z,4.87
2019-04-28T23:15:08.880Z,4.60
2019-04-28T23:17:38.031Z,4.37
2019-04-28T23:20:10.450Z,4.70
2019-04-28T23:22:47.205Z,4.62
2019-04-28T23:25:16.346Z,4.60
2019-04-28T23:27:45.581Z,4.83
2019-04-28T23:30:34.545Z,4.53
2019-04-28T23:33:03.778Z,4.10
2019-04-28T23:35:32.907Z,4.25
2019-04-28T23:38:02.058Z,4.97
2019-04-28T23:40:31.192Z,5.15
2019-04-28T23:43:04.698Z,4.80
2019-04-28T23:45:33.914Z,4.85
2019-04-28T23:48:03.044Z,4.33
2019-04-28T23:50:38.476Z,4.37
2019-04-28T23:53:13.972Z,5.15
2019-04-28T23:55:43.096Z,4.80
2019-04-28T23:58:12.428Z,4.40
